createdAt,value
2023-05-22T00:09:47.216Z,98175.72
2023-05-22T00:14:53.089Z,98174.25
2023-05-22T00:19:56.488Z,98164.66
2023-05-22T00:25:00.604Z,98157.44
2023-05-22T00:30:03.860Z,98159.31
2023-05-22T00:35:07.796Z,98163.69
2023-05-22T00:40:15.587Z,98157.44
2023-05-22T00:45:18.445Z,98156.47
2023-05-22T00:50:21.549Z,98155.91
2023-05-22T00:55:25.781Z,98158.44
2023-05-22T01:00:28.732Z,98152.72
2023-05-22T01:05:31.496Z,98149.88
2023-05-22T01:10:38.107Z,98152.72
2023-05-22T01:15:48.693Z,98151.91
2023-05-22T01:20:58.871Z,98147.19
2023-05-22T01:26:20.596Z,98148.03
2023-05-22T01:31:28.441Z,98152.03
2023-05-22T01:36:35.739Z,98146.84
2023-05-22T01:41:38.573Z,98141.44
2023-05-22T01:46:42.761Z,98151.16
2023-05-22T01:51:53.736Z,98149.81
2023-05-22T01:57:07.004Z,98145.25
2023-05-22T02:02:14.630Z,98151.81
2023-05-22T02:07:18.776Z,98149.09
2023-05-22T02:12:23.623Z,98142.19
2023-05-22T02:17:28.490Z,98140.16
2023-05-22T02:22:31.342Z,98144.34
2023-05-22T02:27:34.140Z,98141.66
2023-05-22T02:32:40.320Z,98138.31
2023-05-22T02:37:43.244Z,98133.56
2023-05-22T02:42:46.122Z,98140.25
2023-05-22T02:47:50.668Z,98136.91
2023-05-22T02:52:53.617Z,98131.00
2023-05-22T02:57:56.441Z,98134.66
2023-05-22T03:03:02.755Z,98136.19
2023-05-22T03:08:06.662Z,98138.69
2023-05-22T03:13:09.784Z,98144.19
2023-05-22T03:18:14.307Z,98143.50
2023-05-22T03:23:18.824Z,98137.31
2023-05-22T03:28:21.769Z,98139.47
2023-05-22T03:33:26.503Z,98137.97
2023-05-22T03:38:29.344Z,98141.66
2023-05-22T03:43:32.276Z,98145.28
2023-05-22T03:48:36.564Z,98140.13
2023-05-22T03:53:39.494Z,98133.75
2023-05-22T03:58:42.356Z,98138.09
2023-05-22T04:03:47.864Z,98131.91
2023-05-22T04:08:50.775Z,98132.97
2023-05-22T04:13:54.463Z,98135.31
2023-05-22T04:18:58.828Z,98135.66
2023-05-22T04:24:02.588Z,98139.22
2023-05-22T04:29:10.320Z,98147.97
2023-05-22T04:34:17.167Z,98142.34
2023-05-22T04:39:19.937Z,98149.94
2023-05-22T04:44:23.759Z,98153.50
2023-05-22T04:49:29.568Z,98157.22
2023-05-22T04:54:32.395Z,98163.81
2023-05-22T04:59:39.158Z,98150.03
2023-05-22T05:04:43.501Z,98166.19
2023-05-22T05:09:46.510Z,98171.34
2023-05-22T05:14:53.540Z,98178.19
2023-05-22T05:19:57.686Z,98175.63
2023-05-22T05:25:00.959Z,98181.91
2023-05-22T05:30:04.618Z,98178.16
2023-05-22T05:35:22.991Z,98175.31
2023-05-22T05:40:40.133Z,98180.44
2023-05-22T05:45:46.012Z,98174.31
2023-05-22T05:50:51.953Z,98171.38
2023-05-22T05:55:55.676Z,98177.34
2023-05-22T06:00:59.949Z,98180.09
2023-05-22T06:06:06.070Z,98176.22
2023-05-22T06:11:31.973Z,98187.53
2023-05-22T06:16:37.875Z,98185.19
2023-05-22T06:21:42.539Z,98183.53
2023-05-22T06:26:45.664Z,98186.75
2023-05-22T06:31:48.694Z,98196.50
2023-05-22T06:36:56.352Z,98193.50
2023-05-22T06:42:07.052Z,98188.03
2023-05-22T06:47:28.394Z,98191.28
2023-05-22T06:52:34.007Z,98195.28
2023-05-22T06:57:39.000Z,98201.94
2023-05-22T07:02:42.254Z,98206.97
2023-05-22T07:08:10.469Z,98209.38
2023-05-22T07:13:15.132Z,98206.13
2023-05-22T07:18:20.445Z,98212.16
2023-05-22T07:23:27.737Z,98210.31
2023-05-22T07:28:32.129Z,98207.81
2023-05-22T07:33:43.865Z,98207.47
2023-05-22T07:38:50.582Z,98215.59
2023-05-22T07:43:53.679Z,98214.31
2023-05-22T07:49:05.186Z,98215.00
2023-05-22T07:54:11.050Z,98211.44
2023-05-22T07:59:20.780Z,98216.59
2023-05-22T08:04:23.746Z,98219.06
2023-05-22T08:09:29.092Z,98227.06
2023-05-22T08:14:33.795Z,98227.81
2023-05-22T08:19:36.781Z,98235.47
2023-05-22T08:24:42.741Z,98227.91
2023-05-22T08:29:45.581Z,98230.13
2023-05-22T08:34:51.164Z,98226.88
2023-05-22T08:39:55.575Z,98227.19
2023-05-22T08:45:01.022Z,98230.63
2023-05-22T08:50:07.303Z,98228.84
2023-05-22T08:55:12.352Z,98222.34
2023-05-22T09:00:16.945Z,98227.75
2023-05-22T09:05:27.738Z,98228.34
2023-05-22T09:10:31.955Z,98220.28
2023-05-22T09:15:35.967Z,98225.31
2023-05-22T09:20:42.026Z,98230.09
2023-05-22T09:25:48.937Z,98229.09
2023-05-22T09:30:53.143Z,98214.84
2023-05-22T09:35:56.325Z,98215.91
2023-05-22T09:41:01.223Z,98219.72
2023-05-22T09:46:05.172Z,98206.56
2023-05-22T09:51:10.382Z,98215.03
2023-05-22T09:56:24.292Z,98211.97
2023-05-22T10:01:42.349Z,98214.56
2023-05-22T10:06:48.962Z,98217.09
2023-05-22T10:11:56.286Z,98211.09
2023-05-22T10:17:02.203Z,98212.28
2023-05-22T10:22:09.274Z,98214.03
2023-05-22T10:27:15.308Z,98210.56
2023-05-22T10:32:26.131Z,98208.75
2023-05-22T10:37:48.344Z,98203.59
2023-05-22T10:42:54.284Z,98196.59
2023-05-22T10:48:07.087Z,98190.34
2023-05-22T10:53:23.991Z,98192.28
2023-05-22T10:58:31.218Z,98184.22
2023-05-22T11:03:54.071Z,98181.53
2023-05-22T11:08:58.182Z,98188.63
2023-05-22T11:14:04.460Z,98180.78
2023-05-22T11:19:21.896Z,98185.09
2023-05-22T11:24:26.775Z,98178.50
2023-05-22T11:29:32.714Z,98177.00
2023-05-22T11:34:37.099Z,98179.47
2023-05-22T11:39:41.240Z,98170.75
2023-05-22T11:44:46.519Z,98162.59
2023-05-22T11:49:50.283Z,98152.09
2023-05-22T11:54:54.255Z,98154.41
2023-05-22T12:00:03.328Z,98149.91
2023-05-22T12:05:16.631Z,98155.25
2023-05-22T12:10:22.090Z,98142.88
2023-05-22T12:15:27.380Z,98141.63
2023-05-22T12:20:32.463Z,98141.84
2023-05-22T12:25:37.450Z,98139.56
2023-05-22T12:30:42.927Z,98132.78
2023-05-22T12:35:46.112Z,98142.22
2023-05-22T12:40:53.716Z,98137.13
2023-05-22T12:45:59.275Z,98130.56
2023-05-22T12:51:03.829Z,98131.34
2023-05-22T12:56:10.248Z,98127.31
2023-05-22T13:01:15.488Z,98127.19
2023-05-22T13:06:19.561Z,98128.72
2023-05-22T13:11:23.535Z,98124.03
2023-05-22T13:16:30.362Z,98129.13
2023-05-22T13:21:34.359Z,98134.59
2023-05-22T13:26:37.472Z,98147.56
2023-05-22T13:31:42.113Z,98139.53
2023-05-22T13:36:47.061Z,98145.03
2023-05-22T13:41:49.942Z,98159.06
2023-05-22T13:46:54.127Z,98155.75
2023-05-22T13:51:57.403Z,98156.97
2023-05-22T13:57:04.509Z,98155.25
2023-05-22T14:02:09.109Z,98143.19
2023-05-22T14:07:12.510Z,98148.72
2023-05-22T14:12:15.404Z,98135.72
2023-05-22T14:17:23.188Z,98131.03
2023-05-22T14:22:27.426Z,98127.44
2023-05-22T14:27:31.530Z,98123.56
2023-05-22T14:32:36.067Z,98130.84
2023-05-22T14:37:39.489Z,98129.59
2023-05-22T14:42:43.467Z,98131.94
2023-05-22T14:47:47.909Z,98139.78
2023-05-22T14:52:51.312Z,98132.97
2023-05-22T14:57:57.578Z,98127.34
2023-05-22T15:03:03.667Z,98139.66
2023-05-22T15:08:09.394Z,98140.59
2023-05-22T15:13:13.619Z,98145.69
2023-05-22T15:18:19.856Z,98143.16
2023-05-22T15:23:25.443Z,98146.34
2023-05-22T15:28:32.854Z,98147.91
2023-05-22T15:33:39.502Z,98141.84
2023-05-22T15:38:42.771Z,98134.00
2023-05-22T15:43:50.749Z,98137.97
2023-05-22T15:48:56.168Z,98125.13
2023-05-22T15:53:59.221Z,98125.22
2023-05-22T15:59:02.038Z,98124.34
2023-05-22T16:04:06.534Z,98103.53
2023-05-22T16:09:09.937Z,98112.47
2023-05-22T16:14:12.832Z,98107.09
2023-05-22T16:19:17.678Z,98104.03
2023-05-22T16:24:21.614Z,98095.53
2023-05-22T16:29:26.736Z,98099.53
2023-05-22T16:34:33.925Z,98105.66
2023-05-22T16:39:39.697Z,98115.06
2023-05-22T16:44:42.467Z,98123.81
2023-05-22T16:49:46.694Z,98120.00
2023-05-22T16:54:49.526Z,98126.31
2023-05-22T16:59:52.623Z,98131.78
2023-05-22T17:04:56.960Z,98140.41
2023-05-22T17:10:00.807Z,98138.41
2023-05-22T17:15:03.748Z,98140.28
2023-05-22T17:20:10.422Z,98152.03
2023-05-22T17:25:14.896Z,98162.34
2023-05-22T17:30:20.280Z,98157.16
2023-05-22T17:35:25.999Z,98166.00
2023-05-22T17:40:40.559Z,98177.91
2023-05-22T17:45:50.244Z,98192.28
2023-05-22T17:50:56.273Z,98202.25
2023-05-22T17:55:59.073Z,98207.13
2023-05-22T18:01:02.422Z,98208.22
2023-05-22T18:06:07.683Z,98214.47
2023-05-22T18:11:10.545Z,98210.25
2023-05-22T18:16:14.417Z,98222.13
2023-05-22T18:21:20.688Z,98224.59
2023-05-22T18:26:24.697Z,98233.97
2023-05-22T18:31:29.802Z,98243.72
2023-05-22T18:36:34.715Z,98252.63
2023-05-22T18:41:40.070Z,98246.44
2023-05-22T18:46:42.940Z,98234.34
2023-05-22T18:51:48.199Z,98223.00
2023-05-22T18:56:51.171Z,98226.28
2023-05-22T19:01:56.595Z,98223.22
2023-05-22T19:07:01.527Z,98242.34
2023-05-22T19:12:04.810Z,98245.09
2023-05-22T19:17:07.953Z,98250.59
2023-05-22T19:22:12.838Z,98242.63
2023-05-22T19:27:15.648Z,98255.06
2023-05-22T19:32:18.397Z,98268.28
2023-05-22T19:37:22.580Z,98284.63
2023-05-22T19:42:25.412Z,98285.22
2023-05-22T19:47:28.267Z,98288.41
2023-05-22T19:52:32.814Z,98300.84
2023-05-22T19:57:38.425Z,98296.00
2023-05-22T20:02:42.714Z,98285.66
2023-05-22T20:07:48.610Z,98290.72
2023-05-22T20:12:54.015Z,98303.75
2023-05-22T20:17:57.955Z,98300.13
2023-05-22T20:23:02.212Z,98305.06
2023-05-22T20:28:05.531Z,98287.09
2023-05-22T20:33:08.439Z,98296.31
2023-05-22T20:38:14.816Z,98299.78
2023-05-22T20:43:18.903Z,98301.72
2023-05-22T20:48:21.784Z,98315.44
2023-05-22T20:53:26.867Z,98309.28
2023-05-22T20:58:29.903Z,98309.00
2023-05-22T21:03:32.865Z,98316.84
2023-05-22T21:08:36.997Z,98317.47
2023-05-22T21:13:39.772Z,98318.66
2023-05-22T21:18:42.657Z,98306.94
2023-05-22T21:23:47.986Z,98317.63
2023-05-22T21:28:50.740Z,98309.94
2023-05-22T21:33:53.629Z,98321.47
2023-05-22T21:39:00.293Z,98328.78
2023-05-22T21:44:03.219Z,98335.56
2023-05-22T21:49:09.762Z,98331.44
2023-05-22T21:54:15.328Z,98336.25
2023-05-22T21:59:18.394Z,98332.06
2023-05-22T22:04:21.925Z,98345.94
2023-05-22T22:09:26.548Z,98345.00
2023-05-22T22:14:29.316Z,98348.75
2023-05-22T22:19:32.899Z,98357.19
2023-05-22T22:24:37.477Z,98359.06
2023-05-22T22:29:41.747Z,98366.34
2023-05-22T22:34:45.328Z,98370.38
2023-05-22T22:39:49.652Z,98374.06
2023-05-22T22:44:52.567Z,98373.91
2023-05-22T22:49:57.234Z,98371.34
2023-05-22T22:55:01.453Z,98376.75
2023-05-22T23:00:05.995Z,98374.03
2023-05-22T23:05:10.370Z,98376.91
2023-05-22T23:10:14.566Z,98377.75
2023-05-22T23:15:17.438Z,98389.06
2023-05-22T23:20:20.434Z,98383.16
2023-05-22T23:25:24.953Z,98387.22
2023-05-22T23:30:28.089Z,98385.53
2023-05-22T23:35:31.003Z,98384.88
2023-05-22T23:40:35.212Z,98386.91
2023-05-22T23:45:38.100Z,98406.31
2023-05-22T23:50:40.956Z,98403.78
2023-05-22T23:55:45.161Z,98412.22
